Амбассадор

Карта отелей и гостиниц, располагающихся рядом с аэропортом Амбассадор :

Амбассадор Санкт-Петербург 59° 55' 29.64" N, 30° 18' 36.8388" E
Амбассадор Санкт-Петербург 59° 55' 29.64" N, 30° 18' 36.8388" E
Код аэродрома ИКАО
ULLH
Код аэродрома RU
УЛЛХ
Координаты
N59.92490° E030.31023°
Превышение над уровнем моря
40
Основная полоса
08/26
Курс магнитный
079,7/259,7
Длина основной ВПП
15
Ширина основной ВПП
15
Покрытие основной ВПП
Твёрдое (бетон)
Освещение ВПП
По запросу
Тип: 
Вертодром
Класс аэродрома: 
Принадлежность: 
ГА
Статус: 
Действующий
Сайт: 
E-mail аэродрома: 
Страна: 
Россия
Регион: 
Санкт-Петербург
Город: 
Дополнительная информация: 
1. Расположена на крыше здания одноименного отеля. 2. Взлет и посадка производится в соответствии с РЛЭ вертолетов без использования влияния «воздушной подушки». 3. ПП расположена в городской черте вблизи исторических памятников и жилых кварталов, поэтому заход на посадку и взлет выполняется по методике с уменьшением шума на местности. 4. Грузонапряженность до 3,4 тонн. 5. Оборудована сеткой безопасности.

Найти трансфер

С помощью этой формы Вы можете найти трансфер из аэропорта Амбассадор в город, аэропорт или вокзал:

Карта места

Javascript is required to view this map.

Погода в аэропортах:

Авиационная погода в Храброво

Регион: 
Погода METAR: 
UMKK 171900Z 09005MPS 9000 -DZ OVC006 11/11 Q1011 R06/19//95 NOSIG RMK QBB180 OBST OBSC QFE757/1009
Время наблюдения
2021-09-17T19:00:00Z
Температура C
11.0
Точка росы
11.0
Направление ветра
90
Скорость ветра (узлы)
10
Метео видимость
5.59
Явления погоды
-DZ
Условия полета
IFR
Аэропорт подробнее: 

Авиационная погода в Махачкале

Регион: 
Погода METAR: 
URML 171900Z 07003MPS 9999 -RA OVC024 17/15 Q1016 R14/290560 NOSIG RMK QFE762/1016
Время наблюдения
2021-09-17T19:00:00Z
Температура C
17.0
Точка росы
15.0
Направление ветра
70
Скорость ветра (узлы)
6
Метео видимость
6.21
Явления погоды
-RA
Условия полета
MVFR
Аэропорт подробнее: 

Авиационная погода в Емельяново

Регион: 
Погода METAR: 
UNKL 171900Z 12001MPS 0750 0600S R29/1700D FG VV001 08/08 Q1005 R29/CLRD65 NOSIG RMK QBB040 QFE728
Время наблюдения
2021-09-17T19:00:00Z
Температура C
8.0
Точка росы
8.0
Направление ветра
120
Скорость ветра (узлы)
2
Метео видимость
0.47
Явления погоды
FG
Условия полета
LIFR
Аэропорт подробнее: 

Авиационная погода в Батуми

Регион: 
Погода METAR: 
UGSB 171900Z 13004KT 8000 -SHRA SCT019 BKN030CB 17/17 Q1017 R13/29//55 NOSIG
Время наблюдения
2021-09-17T19:00:00Z
Температура C
17.0
Точка росы
17.0
Направление ветра
130
Скорость ветра (узлы)
4
Метео видимость
4.97
Явления погоды
-SHRA
Условия полета
MVFR